sensor_id;sensor_type;location;lat;lon;timestamp;P1;durP1;ratioP1;P2;durP2;ratioP2
71572;SDS011;59408;51.032;9.410;2023-02-15T00:00:53;20.75;;;7.90;;
71572;SDS011;59408;51.032;9.410;2023-02-15T00:03:19;19.80;;;7.93;;
71572;SDS011;59408;51.032;9.410;2023-02-15T00:05:46;28.17;;;7.90;;
71572;SDS011;59408;51.032;9.410;2023-02-15T00:08:14;28.35;;;7.50;;
71572;SDS011;59408;51.032;9.410;2023-02-15T00:10:41;15.88;;;7.47;;
71572;SDS011;59408;51.032;9.410;2023-02-15T00:13:07;25.92;;;7.80;;
71572;SDS011;59408;51.032;9.410;2023-02-15T00:15:34;19.50;;;7.32;;
71572;SDS011;59408;51.032;9.410;2023-02-15T00:18:00;22.90;;;7.20;;
71572;SDS011;59408;51.032;9.410;2023-02-15T00:20:27;21.67;;;7.85;;
71572;SDS011;59408;51.032;9.410;2023-02-15T00:22:54;26.42;;;8.52;;
71572;SDS011;59408;51.032;9.410;2023-02-15T00:25:22;22.15;;;7.32;;
71572;SDS011;59408;51.032;9.410;2023-02-15T00:27:49;17.90;;;7.05;;
71572;SDS011;59408;51.032;9.410;2023-02-15T00:30:16;17.97;;;7.43;;
71572;SDS011;59408;51.032;9.410;2023-02-15T00:32:43;24.77;;;7.80;;
71572;SDS011;59408;51.032;9.410;2023-02-15T00:35:09;16.92;;;7.68;;
71572;SDS011;59408;51.032;9.410;2023-02-15T00:37:36;27.98;;;7.05;;
71572;SDS011;59408;51.032;9.410;2023-02-15T00:40:03;16.27;;;7.20;;
71572;SDS011;59408;51.032;9.410;2023-02-15T00:42:32;16.93;;;6.83;;
71572;SDS011;59408;51.032;9.410;2023-02-15T00:44:59;18.08;;;7.60;;
71572;SDS011;59408;51.032;9.410;2023-02-15T00:47:25;19.08;;;8.00;;
71572;SDS011;59408;51.032;9.410;2023-02-15T00:49:52;20.20;;;7.65;;
71572;SDS011;59408;51.032;9.410;2023-02-15T00:52:19;19.13;;;7.72;;
71572;SDS011;59408;51.032;9.410;2023-02-15T00:54:45;21.10;;;7.87;;
71572;SDS011;59408;51.032;9.410;2023-02-15T00:57:12;18.45;;;7.47;;
71572;SDS011;59408;51.032;9.410;2023-02-15T00:59:40;15.40;;;7.28;;
71572;SDS011;59408;51.032;9.410;2023-02-15T01:02:06;24.05;;;8.07;;
71572;SDS011;59408;51.032;9.410;2023-02-15T01:04:33;18.65;;;8.43;;
71572;SDS011;59408;51.032;9.410;2023-02-15T01:07:00;19.63;;;7.40;;
71572;SDS011;59408;51.032;9.410;2023-02-15T01:09:26;17.83;;;7.55;;
71572;SDS011;59408;51.032;9.410;2023-02-15T01:11:53;24.73;;;7.57;;
71572;SDS011;59408;51.032;9.410;2023-02-15T01:14:19;21.33;;;7.95;;
71572;SDS011;59408;51.032;9.410;2023-02-15T01:16:48;22.98;;;8.20;;
71572;SDS011;59408;51.032;9.410;2023-02-15T01:19:14;19.97;;;7.07;;
71572;SDS011;59408;51.032;9.410;2023-02-15T01:21:41;26.25;;;7.63;;
71572;SDS011;59408;51.032;9.410;2023-02-15T01:24:10;22.45;;;7.38;;
71572;SDS011;59408;51.032;9.410;2023-02-15T01:26:38;18.58;;;8.10;;
71572;SDS011;59408;51.032;9.410;2023-02-15T01:29:05;17.15;;;7.43;;
71572;SDS011;59408;51.032;9.410;2023-02-15T01:31:31;21.77;;;7.37;;
71572;SDS011;59408;51.032;9.410;2023-02-15T01:33:59;20.20;;;7.55;;
71572;SDS011;59408;51.032;9.410;2023-02-15T01:36:26;18.25;;;7.45;;
71572;SDS011;59408;51.032;9.410;2023-02-15T01:38:53;19.40;;;7.90;;
71572;SDS011;59408;51.032;9.410;2023-02-15T01:41:19;18.77;;;6.78;;
71572;SDS011;59408;51.032;9.410;2023-02-15T01:43:46;24.27;;;7.87;;
71572;SDS011;59408;51.032;9.410;2023-02-15T01:46:16;17.73;;;6.82;;
71572;SDS011;59408;51.032;9.410;2023-02-15T01:48:46;20.33;;;7.75;;
71572;SDS011;59408;51.032;9.410;2023-02-15T01:51:17;17.70;;;7.03;;
71572;SDS011;59408;51.032;9.410;2023-02-15T01:53:47;15.65;;;7.18;;
71572;SDS011;59408;51.032;9.410;2023-02-15T01:56:18;18.80;;;7.70;;
71572;SDS011;59408;51.032;9.410;2023-02-15T01:58:47;18.83;;;7.10;;
71572;SDS011;59408;51.032;9.410;2023-02-15T02:01:15;17.10;;;7.38;;
71572;SDS011;59408;51.032;9.410;2023-02-15T02:03:43;21.65;;;7.85;;
71572;SDS011;59408;51.032;9.410;2023-02-15T02:06:17;17.55;;;7.25;;
71572;SDS011;59408;51.032;9.410;2023-02-15T02:08:45;17.57;;;6.87;;
71572;SDS011;59408;51.032;9.410;2023-02-15T02:11:12;18.33;;;7.35;;
71572;SDS011;59408;51.032;9.410;2023-02-15T02:13:40;14.77;;;7.00;;
71572;SDS011;59408;51.032;9.410;2023-02-15T02:16:08;18.17;;;7.07;;
71572;SDS011;59408;51.032;9.410;2023-02-15T02:18:41;17.05;;;7.10;;
71572;SDS011;59408;51.032;9.410;2023-02-15T02:24:30;16.73;;;7.20;;
71572;SDS011;59408;51.032;9.410;2023-02-15T02:30:12;15.30;;;6.82;;
71572;SDS011;59408;51.032;9.410;2023-02-15T02:33:01;15.50;;;7.15;;
71572;SDS011;59408;51.032;9.410;2023-02-15T02:35:57;16.73;;;7.03;;
71572;SDS011;59408;51.032;9.410;2023-02-15T02:38:32;15.73;;;6.72;;
71572;SDS011;59408;51.032;9.410;2023-02-15T02:41:11;16.50;;;7.50;;
71572;SDS011;59408;51.032;9.410;2023-02-15T02:43:45;17.25;;;7.57;;
71572;SDS011;59408;51.032;9.410;2023-02-15T02:46:20;17.30;;;7.65;;
71572;SDS011;59408;51.032;9.410;2023-02-15T02:48:51;17.70;;;7.43;;
71572;SDS011;59408;51.032;9.410;2023-02-15T02:51:18;16.92;;;7.10;;
71572;SDS011;59408;51.032;9.410;2023-02-15T02:53:45;15.38;;;6.85;;
71572;SDS011;59408;51.032;9.410;2023-02-15T02:56:16;15.02;;;7.07;;
71572;SDS011;59408;51.032;9.410;2023-02-15T02:58:48;18.67;;;8.15;;
71572;SDS011;59408;51.032;9.410;2023-02-15T03:01:21;16.77;;;7.80;;
71572;SDS011;59408;51.032;9.410;2023-02-15T03:03:55;17.20;;;7.28;;
71572;SDS011;59408;51.032;9.410;2023-02-15T03:06:27;17.67;;;7.93;;
71572;SDS011;59408;51.032;9.410;2023-02-15T03:09:00;16.52;;;7.13;;
71572;SDS011;59408;51.032;9.410;2023-02-15T03:11:33;17.77;;;6.82;;
71572;SDS011;59408;51.032;9.410;2023-02-15T03:14:00;16.70;;;8.00;;
71572;SDS011;59408;51.032;9.410;2023-02-15T03:16:27;17.35;;;6.88;;
71572;SDS011;59408;51.032;9.410;2023-02-15T03:18:57;16.98;;;7.30;;
71572;SDS011;59408;51.032;9.410;2023-02-15T03:21:32;16.95;;;7.07;;
71572;SDS011;59408;51.032;9.410;2023-02-15T03:24:04;14.63;;;6.50;;
71572;SDS011;59408;51.032;9.410;2023-02-15T03:26:35;15.87;;;6.57;;
71572;SDS011;59408;51.032;9.410;2023-02-15T03:29:04;15.95;;;6.95;;
71572;SDS011;59408;51.032;9.410;2023-02-15T03:31:33;17.08;;;7.53;;
71572;SDS011;59408;51.032;9.410;2023-02-15T03:34:06;15.70;;;7.10;;
71572;SDS011;59408;51.032;9.410;2023-02-15T03:36:37;16.05;;;7.57;;
71572;SDS011;59408;51.032;9.410;2023-02-15T03:39:10;15.60;;;6.77;;
71572;SDS011;59408;51.032;9.410;2023-02-15T03:41:45;16.70;;;6.93;;
71572;SDS011;59408;51.032;9.410;2023-02-15T03:44:18;18.33;;;6.45;;
71572;SDS011;59408;51.032;9.410;2023-02-15T03:46:51;15.90;;;6.13;;
71572;SDS011;59408;51.032;9.410;2023-02-15T03:49:24;17.23;;;6.75;;
71572;SDS011;59408;51.032;9.410;2023-02-15T03:51:57;14.73;;;6.03;;
71572;SDS011;59408;51.032;9.410;2023-02-15T03:54:27;12.55;;;5.45;;
71572;SDS011;59408;51.032;9.410;2023-02-15T03:56:56;14.68;;;5.50;;
71572;SDS011;59408;51.032;9.410;2023-02-15T03:59:23;14.82;;;6.40;;
71572;SDS011;59408;51.032;9.410;2023-02-15T04:01:54;14.25;;;5.57;;
71572;SDS011;59408;51.032;9.410;2023-02-15T04:04:34;13.73;;;5.80;;
71572;SDS011;59408;51.032;9.410;2023-02-15T04:07:03;17.33;;;5.90;;
71572;SDS011;59408;51.032;9.410;2023-02-15T04:09:32;14.30;;;5.88;;
71572;SDS011;59408;51.032;9.410;2023-02-15T04:11:58;17.52;;;6.50;;
71572;SDS011;59408;51.032;9.410;2023-02-15T04:14:25;15.65;;;7.07;;
71572;SDS011;59408;51.032;9.410;2023-02-15T04:16:52;15.10;;;6.83;;
71572;SDS011;59408;51.032;9.410;2023-02-15T04:19:19;18.00;;;6.90;;
71572;SDS011;59408;51.032;9.410;2023-02-15T04:21:47;14.68;;;6.72;;
71572;SDS011;59408;51.032;9.410;2023-02-15T04:24:13;15.55;;;6.00;;
71572;SDS011;59408;51.032;9.410;2023-02-15T04:26:40;15.68;;;6.75;;
71572;SDS011;59408;51.032;9.410;2023-02-15T04:29:07;13.47;;;6.10;;
71572;SDS011;59408;51.032;9.410;2023-02-15T04:31:33;14.85;;;6.45;;
71572;SDS011;59408;51.032;9.410;2023-02-15T04:34:00;12.77;;;6.22;;
71572;SDS011;59408;51.032;9.410;2023-02-15T04:36:27;15.27;;;6.10;;
71572;SDS011;59408;51.032;9.410;2023-02-15T04:38:55;13.38;;;6.50;;
71572;SDS011;59408;51.032;9.410;2023-02-15T04:41:21;16.23;;;6.23;;
71572;SDS011;59408;51.032;9.410;2023-02-15T04:43:48;13.00;;;5.88;;
71572;SDS011;59408;51.032;9.410;2023-02-15T04:46:15;13.48;;;6.30;;
71572;SDS011;59408;51.032;9.410;2023-02-15T04:48:41;14.27;;;6.25;;
71572;SDS011;59408;51.032;9.410;2023-02-15T04:51:08;13.55;;;6.10;;
71572;SDS011;59408;51.032;9.410;2023-02-15T04:53:35;14.30;;;5.90;;
71572;SDS011;59408;51.032;9.410;2023-02-15T04:56:03;13.73;;;5.80;;
71572;SDS011;59408;51.032;9.410;2023-02-15T04:58:30;14.70;;;6.30;;
71572;SDS011;59408;51.032;9.410;2023-02-15T05:00:56;13.82;;;6.40;;
71572;SDS011;59408;51.032;9.410;2023-02-15T05:03:23;14.20;;;6.00;;
71572;SDS011;59408;51.032;9.410;2023-02-15T05:05:50;14.83;;;5.80;;
71572;SDS011;59408;51.032;9.410;2023-02-15T05:08:17;13.43;;;5.78;;
71572;SDS011;59408;51.032;9.410;2023-02-15T05:10:44;11.25;;;5.25;;
71572;SDS011;59408;51.032;9.410;2023-02-15T05:13:12;14.80;;;6.10;;
71572;SDS011;59408;51.032;9.410;2023-02-15T05:15:38;12.50;;;5.53;;
71572;SDS011;59408;51.032;9.410;2023-02-15T05:18:05;16.40;;;6.27;;
71572;SDS011;59408;51.032;9.410;2023-02-15T05:20:31;15.55;;;6.15;;
71572;SDS011;59408;51.032;9.410;2023-02-15T05:22:58;13.30;;;5.72;;
71572;SDS011;59408;51.032;9.410;2023-02-15T05:25:25;16.00;;;6.47;;
71572;SDS011;59408;51.032;9.410;2023-02-15T05:27:51;13.90;;;6.05;;
71572;SDS011;59408;51.032;9.410;2023-02-15T05:30:19;14.40;;;6.50;;
71572;SDS011;59408;51.032;9.410;2023-02-15T05:32:46;13.68;;;6.13;;
71572;SDS011;59408;51.032;9.410;2023-02-15T05:35:13;31.67;;;10.93;;
71572;SDS011;59408;51.032;9.410;2023-02-15T05:37:41;17.75;;;6.75;;
71572;SDS011;59408;51.032;9.410;2023-02-15T05:40:08;14.38;;;6.18;;
71572;SDS011;59408;51.032;9.410;2023-02-15T05:42:35;13.37;;;6.03;;
71572;SDS011;59408;51.032;9.410;2023-02-15T05:45:02;16.33;;;6.50;;
71572;SDS011;59408;51.032;9.410;2023-02-15T05:47:31;16.52;;;5.53;;
71572;SDS011;59408;51.032;9.410;2023-02-15T05:49:57;14.07;;;5.30;;
71572;SDS011;59408;51.032;9.410;2023-02-15T05:52:24;13.68;;;5.78;;
71572;SDS011;59408;51.032;9.410;2023-02-15T05:54:51;15.23;;;6.23;;
71572;SDS011;59408;51.032;9.410;2023-02-15T05:57:17;14.45;;;5.60;;
71572;SDS011;59408;51.032;9.410;2023-02-15T05:59:44;14.85;;;6.00;;
71572;SDS011;59408;51.032;9.410;2023-02-15T06:02:10;15.52;;;5.95;;
71572;SDS011;59408;51.032;9.410;2023-02-15T06:04:38;12.43;;;5.65;;
71572;SDS011;59408;51.032;9.410;2023-02-15T06:07:05;14.70;;;5.63;;
71572;SDS011;59408;51.032;9.410;2023-02-15T06:09:32;12.27;;;5.32;;
71572;SDS011;59408;51.032;9.410;2023-02-15T06:11:58;16.75;;;6.32;;
71572;SDS011;59408;51.032;9.410;2023-02-15T06:14:25;14.75;;;5.35;;
71572;SDS011;59408;51.032;9.410;2023-02-15T06:16:52;13.70;;;5.22;;
71572;SDS011;59408;51.032;9.410;2023-02-15T06:19:18;13.07;;;4.97;;
71572;SDS011;59408;51.032;9.410;2023-02-15T06:21:46;13.13;;;5.43;;
71572;SDS011;59408;51.032;9.410;2023-02-15T06:24:13;15.55;;;5.95;;
71572;SDS011;59408;51.032;9.410;2023-02-15T06:26:40;13.98;;;5.55;;
71572;SDS011;59408;51.032;9.410;2023-02-15T06:29:06;13.25;;;5.50;;
71572;SDS011;59408;51.032;9.410;2023-02-15T06:31:33;13.90;;;5.03;;
71572;SDS011;59408;51.032;9.410;2023-02-15T06:34:00;14.77;;;5.47;;
71572;SDS011;59408;51.032;9.410;2023-02-15T06:36:26;14.18;;;5.28;;
71572;SDS011;59408;51.032;9.410;2023-02-15T06:38:54;12.88;;;5.22;;
71572;SDS011;59408;51.032;9.410;2023-02-15T06:41:22;14.95;;;5.80;;
71572;SDS011;59408;51.032;9.410;2023-02-15T06:43:49;14.87;;;6.00;;
71572;SDS011;59408;51.032;9.410;2023-02-15T06:46:16;16.30;;;5.35;;
71572;SDS011;59408;51.032;9.410;2023-02-15T06:48:43;14.77;;;6.35;;
71572;SDS011;59408;51.032;9.410;2023-02-15T06:51:10;15.32;;;5.95;;
71572;SDS011;59408;51.032;9.410;2023-02-15T06:53:37;16.52;;;6.72;;
71572;SDS011;59408;51.032;9.410;2023-02-15T06:56:06;15.53;;;5.97;;
71572;SDS011;59408;51.032;9.410;2023-02-15T06:58:33;15.50;;;5.82;;
71572;SDS011;59408;51.032;9.410;2023-02-15T07:01:00;16.13;;;6.13;;
71572;SDS011;59408;51.032;9.410;2023-02-15T07:03:27;17.08;;;6.07;;
71572;SDS011;59408;51.032;9.410;2023-02-15T07:05:54;15.30;;;6.22;;
71572;SDS011;59408;51.032;9.410;2023-02-15T07:08:21;14.60;;;6.13;;
71572;SDS011;59408;51.032;9.410;2023-02-15T07:10:48;15.13;;;6.28;;
71572;SDS011;59408;51.032;9.410;2023-02-15T07:13:17;15.07;;;6.55;;
71572;SDS011;59408;51.032;9.410;2023-02-15T07:15:44;15.45;;;6.20;;
71572;SDS011;59408;51.032;9.410;2023-02-15T07:18:11;14.63;;;5.90;;
71572;SDS011;59408;51.032;9.410;2023-02-15T07:20:38;17.13;;;6.13;;
71572;SDS011;59408;51.032;9.410;2023-02-15T07:23:05;14.13;;;5.63;;
71572;SDS011;59408;51.032;9.410;2023-02-15T07:25:31;14.77;;;6.10;;
71572;SDS011;59408;51.032;9.410;2023-02-15T07:27:58;15.95;;;6.13;;
71572;SDS011;59408;51.032;9.410;2023-02-15T07:30:27;14.98;;;6.20;;
71572;SDS011;59408;51.032;9.410;2023-02-15T07:32:54;15.47;;;6.30;;
71572;SDS011;59408;51.032;9.410;2023-02-15T07:35:21;15.52;;;5.53;;
71572;SDS011;59408;51.032;9.410;2023-02-15T07:37:48;14.38;;;5.63;;
71572;SDS011;59408;51.032;9.410;2023-02-15T07:40:14;13.55;;;5.65;;
71572;SDS011;59408;51.032;9.410;2023-02-15T07:42:41;14.10;;;5.80;;
71572;SDS011;59408;51.032;9.410;2023-02-15T07:45:08;14.17;;;5.87;;
71572;SDS011;59408;51.032;9.410;2023-02-15T07:47:36;14.95;;;5.43;;
71572;SDS011;59408;51.032;9.410;2023-02-15T07:50:03;16.73;;;6.45;;
71572;SDS011;59408;51.032;9.410;2023-02-15T07:52:30;15.75;;;5.80;;
71572;SDS011;59408;51.032;9.410;2023-02-15T07:54:57;15.88;;;6.18;;
71572;SDS011;59408;51.032;9.410;2023-02-15T07:57:23;16.83;;;6.23;;
71572;SDS011;59408;51.032;9.410;2023-02-15T07:59:50;21.42;;;7.07;;
71572;SDS011;59408;51.032;9.410;2023-02-15T08:02:16;19.13;;;6.57;;
71572;SDS011;59408;51.032;9.410;2023-02-15T08:04:45;18.35;;;6.25;;
71572;SDS011;59408;51.032;9.410;2023-02-15T08:07:11;18.20;;;6.18;;
71572;SDS011;59408;51.032;9.410;2023-02-15T08:09:38;17.07;;;6.67;;
71572;SDS011;59408;51.032;9.410;2023-02-15T08:12:05;19.20;;;6.80;;
71572;SDS011;59408;51.032;9.410;2023-02-15T08:14:32;20.88;;;6.82;;
71572;SDS011;59408;51.032;9.410;2023-02-15T08:16:59;17.30;;;6.28;;
71572;SDS011;59408;51.032;9.410;2023-02-15T08:19:27;16.73;;;6.65;;
71572;SDS011;59408;51.032;9.410;2023-02-15T08:21:57;21.50;;;7.07;;
71572;SDS011;59408;51.032;9.410;2023-02-15T08:24:25;16.75;;;6.28;;
71572;SDS011;59408;51.032;9.410;2023-02-15T08:26:53;17.55;;;6.75;;
71572;SDS011;59408;51.032;9.410;2023-02-15T08:29:22;16.90;;;6.30;;
71572;SDS011;59408;51.032;9.410;2023-02-15T08:31:49;21.20;;;7.55;;
71572;SDS011;59408;51.032;9.410;2023-02-15T08:34:19;18.90;;;6.63;;
71572;SDS011;59408;51.032;9.410;2023-02-15T08:36:46;19.08;;;6.47;;
71572;SDS011;59408;51.032;9.410;2023-02-15T08:39:14;21.75;;;7.07;;
71572;SDS011;59408;51.032;9.410;2023-02-15T08:41:42;23.77;;;7.47;;
71572;SDS011;59408;51.032;9.410;2023-02-15T08:44:10;18.65;;;6.50;;
71572;SDS011;59408;51.032;9.410;2023-02-15T08:46:38;19.37;;;6.50;;
71572;SDS011;59408;51.032;9.410;2023-02-15T08:49:06;22.73;;;8.18;;
71572;SDS011;59408;51.032;9.410;2023-02-15T08:51:33;21.55;;;7.80;;
71572;SDS011;59408;51.032;9.410;2023-02-15T08:54:02;22.45;;;8.40;;
71572;SDS011;59408;51.032;9.410;2023-02-15T08:56:32;21.17;;;8.88;;
71572;SDS011;59408;51.032;9.410;2023-02-15T08:59:00;25.07;;;9.63;;
71572;SDS011;59408;51.032;9.410;2023-02-15T09:01:28;23.85;;;7.75;;
71572;SDS011;59408;51.032;9.410;2023-02-15T09:03:56;21.90;;;8.15;;
71572;SDS011;59408;51.032;9.410;2023-02-15T09:06:24;19.58;;;7.43;;
71572;SDS011;59408;51.032;9.410;2023-02-15T09:08:51;22.02;;;7.82;;
71572;SDS011;59408;51.032;9.410;2023-02-15T09:11:19;19.77;;;6.83;;
71572;SDS011;59408;51.032;9.410;2023-02-15T09:13:49;19.05;;;6.80;;
71572;SDS011;59408;51.032;9.410;2023-02-15T09:16:17;21.45;;;8.13;;
71572;SDS011;59408;51.032;9.410;2023-02-15T09:18:44;22.30;;;7.63;;
71572;SDS011;59408;51.032;9.410;2023-02-15T09:21:12;21.92;;;7.70;;
71572;SDS011;59408;51.032;9.410;2023-02-15T09:23:40;22.10;;;7.53;;
71572;SDS011;59408;51.032;9.410;2023-02-15T09:26:08;20.80;;;7.13;;
71572;SDS011;59408;51.032;9.410;2023-02-15T09:28:36;20.90;;;6.97;;
71572;SDS011;59408;51.032;9.410;2023-02-15T09:31:06;20.25;;;6.75;;
71572;SDS011;59408;51.032;9.410;2023-02-15T09:33:35;22.27;;;8.68;;
71572;SDS011;59408;51.032;9.410;2023-02-15T09:36:02;22.17;;;7.40;;
71572;SDS011;59408;51.032;9.410;2023-02-15T09:38:29;19.33;;;7.00;;
71572;SDS011;59408;51.032;9.410;2023-02-15T09:41:00;20.50;;;7.65;;
71572;SDS011;59408;51.032;9.410;2023-02-15T09:43:39;22.52;;;8.48;;
71572;SDS011;59408;51.032;9.410;2023-02-15T09:46:18;23.20;;;9.15;;
71572;SDS011;59408;51.032;9.410;2023-02-15T09:48:58;23.27;;;8.30;;
71572;SDS011;59408;51.032;9.410;2023-02-15T09:54:33;17.75;;;6.97;;
71572;SDS011;59408;51.032;9.410;2023-02-15T09:57:15;15.85;;;6.55;;
71572;SDS011;59408;51.032;9.410;2023-02-15T09:59:56;18.25;;;7.20;;
71572;SDS011;59408;51.032;9.410;2023-02-15T10:02:37;19.33;;;7.50;;
71572;SDS011;59408;51.032;9.410;2023-02-15T10:05:20;17.92;;;7.30;;
71572;SDS011;59408;51.032;9.410;2023-02-15T10:08:03;16.27;;;6.75;;
71572;SDS011;59408;51.032;9.410;2023-02-15T10:10:50;20.73;;;7.22;;
71572;SDS011;59408;51.032;9.410;2023-02-15T10:13:30;19.90;;;6.95;;
71572;SDS011;59408;51.032;9.410;2023-02-15T10:16:10;22.23;;;7.60;;
71572;SDS011;59408;51.032;9.410;2023-02-15T10:18:53;19.00;;;7.53;;
71572;SDS011;59408;51.032;9.410;2023-02-15T10:21:40;21.80;;;7.53;;
71572;SDS011;59408;51.032;9.410;2023-02-15T10:24:28;19.52;;;7.07;;
71572;SDS011;59408;51.032;9.410;2023-02-15T10:27:07;19.23;;;7.38;;
71572;SDS011;59408;51.032;9.410;2023-02-15T10:29:38;19.47;;;6.70;;
71572;SDS011;59408;51.032;9.410;2023-02-15T10:32:10;19.20;;;8.27;;
71572;SDS011;59408;51.032;9.410;2023-02-15T10:34:50;19.35;;;7.95;;
71572;SDS011;59408;51.032;9.410;2023-02-15T10:37:23;20.33;;;8.25;;
71572;SDS011;59408;51.032;9.410;2023-02-15T10:40:07;21.70;;;8.68;;
71572;SDS011;59408;51.032;9.410;2023-02-15T10:42:45;19.60;;;7.07;;
71572;SDS011;59408;51.032;9.410;2023-02-15T10:45:28;20.63;;;7.93;;
71572;SDS011;59408;51.032;9.410;2023-02-15T10:48:04;17.80;;;7.45;;
71572;SDS011;59408;51.032;9.410;2023-02-15T10:50:44;18.58;;;7.32;;
71572;SDS011;59408;51.032;9.410;2023-02-15T10:53:24;17.45;;;6.70;;
71572;SDS011;59408;51.032;9.410;2023-02-15T10:56:00;20.83;;;8.80;;
71572;SDS011;59408;51.032;9.410;2023-02-15T10:58:44;18.40;;;7.50;;
71572;SDS011;59408;51.032;9.410;2023-02-15T11:01:21;21.10;;;7.55;;
71572;SDS011;59408;51.032;9.410;2023-02-15T11:07:02;18.15;;;7.35;;
71572;SDS011;59408;51.032;9.410;2023-02-15T11:09:36;20.80;;;7.87;;
71572;SDS011;59408;51.032;9.410;2023-02-15T11:12:08;21.80;;;7.88;;
71572;SDS011;59408;51.032;9.410;2023-02-15T11:14:40;19.20;;;7.15;;
71572;SDS011;59408;51.032;9.410;2023-02-15T11:17:12;17.45;;;6.75;;
71572;SDS011;59408;51.032;9.410;2023-02-15T11:19:47;21.77;;;7.72;;
71572;SDS011;59408;51.032;9.410;2023-02-15T11:22:22;19.27;;;7.70;;
71572;SDS011;59408;51.032;9.410;2023-02-15T11:24:49;21.35;;;8.88;;
71572;SDS011;59408;51.032;9.410;2023-02-15T11:27:17;21.02;;;7.78;;
71572;SDS011;59408;51.032;9.410;2023-02-15T11:29:51;21.45;;;7.35;;
71572;SDS011;59408;51.032;9.410;2023-02-15T11:32:21;21.08;;;8.85;;
71572;SDS011;59408;51.032;9.410;2023-02-15T11:34:53;21.23;;;8.47;;
71572;SDS011;59408;51.032;9.410;2023-02-15T11:37:26;21.73;;;8.18;;
71572;SDS011;59408;51.032;9.410;2023-02-15T11:39:57;22.95;;;8.77;;
71572;SDS011;59408;51.032;9.410;2023-02-15T11:42:24;21.70;;;9.48;;
71572;SDS011;59408;51.032;9.410;2023-02-15T11:44:56;23.77;;;9.57;;
71572;SDS011;59408;51.032;9.410;2023-02-15T11:47:28;21.87;;;8.57;;
71572;SDS011;59408;51.032;9.410;2023-02-15T11:49:55;21.50;;;8.80;;
71572;SDS011;59408;51.032;9.410;2023-02-15T11:52:22;20.45;;;8.73;;
71572;SDS011;59408;51.032;9.410;2023-02-15T11:54:51;20.42;;;8.38;;
71572;SDS011;59408;51.032;9.410;2023-02-15T11:57:21;22.15;;;8.95;;
71572;SDS011;59408;51.032;9.410;2023-02-15T11:59:53;25.53;;;8.83;;
71572;SDS011;59408;51.032;9.410;2023-02-15T12:02:24;22.15;;;9.30;;
71572;SDS011;59408;51.032;9.410;2023-02-15T12:04:51;29.17;;;11.65;;
71572;SDS011;59408;51.032;9.410;2023-02-15T12:07:23;30.35;;;13.20;;
71572;SDS011;59408;51.032;9.410;2023-02-15T12:09:56;26.55;;;10.30;;
71572;SDS011;59408;51.032;9.410;2023-02-15T12:12:29;21.47;;;8.30;;
71572;SDS011;59408;51.032;9.410;2023-02-15T12:14:58;22.85;;;8.70;;
71572;SDS011;59408;51.032;9.410;2023-02-15T12:17:27;27.88;;;10.52;;
71572;SDS011;59408;51.032;9.410;2023-02-15T12:19:56;23.25;;;9.25;;
71572;SDS011;59408;51.032;9.410;2023-02-15T12:22:27;22.88;;;9.35;;
71572;SDS011;59408;51.032;9.410;2023-02-15T12:24:58;24.93;;;8.70;;
71572;SDS011;59408;51.032;9.410;2023-02-15T12:27:27;22.23;;;8.93;;
71572;SDS011;59408;51.032;9.410;2023-02-15T12:29:56;23.50;;;9.55;;
71572;SDS011;59408;51.032;9.410;2023-02-15T12:32:26;25.38;;;9.88;;
71572;SDS011;59408;51.032;9.410;2023-02-15T12:34:59;23.75;;;9.98;;
71572;SDS011;59408;51.032;9.410;2023-02-15T12:37:27;22.50;;;8.87;;
71572;SDS011;59408;51.032;9.410;2023-02-15T12:39:58;23.48;;;9.25;;
71572;SDS011;59408;51.032;9.410;2023-02-15T12:42:26;21.55;;;8.60;;
71572;SDS011;59408;51.032;9.410;2023-02-15T12:44:56;24.90;;;9.52;;
71572;SDS011;59408;51.032;9.410;2023-02-15T12:47:25;23.80;;;9.13;;
71572;SDS011;59408;51.032;9.410;2023-02-15T12:50:10;25.97;;;10.20;;
71572;SDS011;59408;51.032;9.410;2023-02-15T12:52:39;26.42;;;10.18;;
71572;SDS011;59408;51.032;9.410;2023-02-15T12:55:16;22.88;;;10.10;;
71572;SDS011;59408;51.032;9.410;2023-02-15T12:57:46;25.38;;;9.75;;
71572;SDS011;59408;51.032;9.410;2023-02-15T13:00:26;26.83;;;9.57;;
71572;SDS011;59408;51.032;9.410;2023-02-15T13:02:55;26.90;;;10.13;;
71572;SDS011;59408;51.032;9.410;2023-02-15T13:05:25;30.08;;;11.10;;
71572;SDS011;59408;51.032;9.410;2023-02-15T13:07:57;24.23;;;10.25;;
71572;SDS011;59408;51.032;9.410;2023-02-15T13:10:28;24.42;;;10.23;;
71572;SDS011;59408;51.032;9.410;2023-02-15T13:12:59;23.95;;;9.93;;
71572;SDS011;59408;51.032;9.410;2023-02-15T13:15:31;22.57;;;9.37;;
71572;SDS011;59408;51.032;9.410;2023-02-15T13:18:01;23.30;;;9.68;;
71572;SDS011;59408;51.032;9.410;2023-02-15T13:20:30;24.45;;;9.15;;
71572;SDS011;59408;51.032;9.410;2023-02-15T13:23:01;22.27;;;9.75;;
71572;SDS011;59408;51.032;9.410;2023-02-15T13:25:34;25.63;;;10.00;;
71572;SDS011;59408;51.032;9.410;2023-02-15T13:28:10;20.43;;;8.60;;
71572;SDS011;59408;51.032;9.410;2023-02-15T13:30:42;19.88;;;8.55;;
71572;SDS011;59408;51.032;9.410;2023-02-15T13:33:13;22.58;;;10.20;;
71572;SDS011;59408;51.032;9.410;2023-02-15T13:35:44;26.35;;;11.80;;
71572;SDS011;59408;51.032;9.410;2023-02-15T13:38:21;23.15;;;9.23;;
71572;SDS011;59408;51.032;9.410;2023-02-15T13:41:09;27.10;;;13.00;;
71572;SDS011;59408;51.032;9.410;2023-02-15T13:43:42;22.50;;;9.10;;
71572;SDS011;59408;51.032;9.410;2023-02-15T13:46:22;25.15;;;10.30;;
71572;SDS011;59408;51.032;9.410;2023-02-15T13:49:06;21.08;;;9.02;;
71572;SDS011;59408;51.032;9.410;2023-02-15T13:51:41;18.13;;;8.70;;
71572;SDS011;59408;51.032;9.410;2023-02-15T13:54:19;20.83;;;8.40;;
71572;SDS011;59408;51.032;9.410;2023-02-15T13:57:16;21.52;;;9.20;;
71572;SDS011;59408;51.032;9.410;2023-02-15T13:59:59;20.20;;;8.65;;
71572;SDS011;59408;51.032;9.410;2023-02-15T14:02:40;23.65;;;9.68;;
71572;SDS011;59408;51.032;9.410;2023-02-15T14:05:35;19.65;;;9.20;;
71572;SDS011;59408;51.032;9.410;2023-02-15T14:08:16;22.03;;;9.30;;
71572;SDS011;59408;51.032;9.410;2023-02-15T14:10:53;19.90;;;9.07;;
71572;SDS011;59408;51.032;9.410;2023-02-15T14:13:43;22.00;;;9.02;;
71572;SDS011;59408;51.032;9.410;2023-02-15T14:16:24;20.67;;;9.02;;
71572;SDS011;59408;51.032;9.410;2023-02-15T14:19:02;23.02;;;10.23;;
71572;SDS011;59408;51.032;9.410;2023-02-15T14:21:48;22.87;;;9.63;;
71572;SDS011;59408;51.032;9.410;2023-02-15T14:24:24;22.08;;;9.55;;
71572;SDS011;59408;51.032;9.410;2023-02-15T14:26:59;25.08;;;11.73;;
71572;SDS011;59408;51.032;9.410;2023-02-15T14:29:42;34.40;;;15.52;;
71572;SDS011;59408;51.032;9.410;2023-02-15T14:32:15;25.77;;;11.13;;
71572;SDS011;59408;51.032;9.410;2023-02-15T14:34:48;22.53;;;9.30;;
71572;SDS011;59408;51.032;9.410;2023-02-15T14:37:19;21.65;;;9.95;;
71572;SDS011;59408;51.032;9.410;2023-02-15T14:39:55;21.38;;;10.07;;
71572;SDS011;59408;51.032;9.410;2023-02-15T14:42:30;23.83;;;10.68;;
71572;SDS011;59408;51.032;9.410;2023-02-15T14:45:15;22.08;;;10.25;;
71572;SDS011;59408;51.032;9.410;2023-02-15T14:47:46;22.20;;;9.97;;
71572;SDS011;59408;51.032;9.410;2023-02-15T14:50:35;24.88;;;10.57;;
71572;SDS011;59408;51.032;9.410;2023-02-15T14:53:24;23.10;;;9.68;;
71572;SDS011;59408;51.032;9.410;2023-02-15T14:56:11;25.92;;;11.10;;
71572;SDS011;59408;51.032;9.410;2023-02-15T15:01:52;24.07;;;10.70;;
71572;SDS011;59408;51.032;9.410;2023-02-15T15:04:23;25.90;;;11.45;;
71572;SDS011;59408;51.032;9.410;2023-02-15T15:07:00;24.40;;;10.77;;
71572;SDS011;59408;51.032;9.410;2023-02-15T15:09:30;24.50;;;10.02;;